Terminal Aerodrome Forecast
Issued by NWS

Home | Current Version | Previous Version | Text Only | Print | Product List | Glossary On
Versions: 1 2 3 4 5 6 7 8 9 10 11 12 13 14 15
923
FTUS41 KCLE 280708 AAB
TAFFDY
TAF AMD
KFDY 280708Z 2807/2906 04008KT P6SM SCT015 SCT200
      TEMPO 2807/2811 SCT008 BKN015
     FM281400 02008KT P6SM SCT015 BKN040
      TEMPO 2814/2817 BKN015
     FM281700 03011KT P6SM SCT015 BKN045
     FM282200 03014G22KT P6SM FEW025 SCT080
     FM290400 02010KT P6SM SCT200=

USA.gov is the U.S. government's official web portal to all federal, state and local government web resources and services.